sensor_id;sensor_type;location;lat;lon;timestamp;P1;durP1;ratioP1;P2;durP2;ratioP2
19301;SDS011;9785;59.362;12.152;2024-02-26T00:00:23;21.10;;;2.63;;
19301;SDS011;9785;59.362;12.152;2024-02-26T00:02:51;55.73;;;3.33;;
19301;SDS011;9785;59.362;12.152;2024-02-26T00:05:20;28.23;;;2.80;;
19301;SDS011;9785;59.362;12.152;2024-02-26T00:07:48;17.40;;;2.60;;
19301;SDS011;9785;59.362;12.152;2024-02-26T00:10:17;7.37;;;2.50;;
19301;SDS011;9785;59.362;12.152;2024-02-26T00:12:47;8.07;;;2.90;;
19301;SDS011;9785;59.362;12.152;2024-02-26T00:15:16;3.83;;;2.90;;
19301;SDS011;9785;59.362;12.152;2024-02-26T00:17:45;15.17;;;3.03;;
19301;SDS011;9785;59.362;12.152;2024-02-26T00:20:13;5.33;;;3.10;;
19301;SDS011;9785;59.362;12.152;2024-02-26T00:22:42;20.00;;;3.83;;
19301;SDS011;9785;59.362;12.152;2024-02-26T00:25:11;33.77;;;3.37;;
19301;SDS011;9785;59.362;12.152;2024-02-26T00:27:40;50.00;;;6.30;;
19301;SDS011;9785;59.362;12.152;2024-02-26T00:30:12;36.77;;;3.37;;
19301;SDS011;9785;59.362;12.152;2024-02-26T00:32:40;17.43;;;3.03;;
19301;SDS011;9785;59.362;12.152;2024-02-26T00:35:11;3.33;;;2.60;;
19301;SDS011;9785;59.362;12.152;2024-02-26T00:37:40;25.80;;;4.00;;
19301;SDS011;9785;59.362;12.152;2024-02-26T00:40:10;3.53;;;2.93;;
19301;SDS011;9785;59.362;12.152;2024-02-26T00:42:39;21.80;;;4.53;;
19301;SDS011;9785;59.362;12.152;2024-02-26T00:45:13;22.60;;;4.50;;
19301;SDS011;9785;59.362;12.152;2024-02-26T00:47:43;32.30;;;4.37;;
19301;SDS011;9785;59.362;12.152;2024-02-26T00:50:14;9.53;;;3.20;;
19301;SDS011;9785;59.362;12.152;2024-02-26T00:52:43;3.63;;;2.97;;
19301;SDS011;9785;59.362;12.152;2024-02-26T00:55:11;4.93;;;2.70;;
19301;SDS011;9785;59.362;12.152;2024-02-26T00:57:40;4.57;;;2.97;;
19301;SDS011;9785;59.362;12.152;2024-02-26T01:00:08;3.60;;;2.70;;
19301;SDS011;9785;59.362;12.152;2024-02-26T01:02:38;3.50;;;3.20;;
19301;SDS011;9785;59.362;12.152;2024-02-26T01:05:08;15.57;;;3.10;;
19301;SDS011;9785;59.362;12.152;2024-02-26T01:07:37;3.50;;;2.80;;
19301;SDS011;9785;59.362;12.152;2024-02-26T01:10:06;6.73;;;3.20;;
19301;SDS011;9785;59.362;12.152;2024-02-26T01:12:35;4.53;;;2.93;;
19301;SDS011;9785;59.362;12.152;2024-02-26T01:15:04;4.83;;;3.40;;
19301;SDS011;9785;59.362;12.152;2024-02-26T01:17:35;3.67;;;2.93;;
19301;SDS011;9785;59.362;12.152;2024-02-26T01:20:07;5.10;;;2.93;;
19301;SDS011;9785;59.362;12.152;2024-02-26T01:22:36;18.20;;;3.20;;
19301;SDS011;9785;59.362;12.152;2024-02-26T01:25:05;21.03;;;3.73;;
19301;SDS011;9785;59.362;12.152;2024-02-26T01:27:33;9.87;;;3.37;;
19301;SDS011;9785;59.362;12.152;2024-02-26T01:30:02;10.90;;;3.60;;
19301;SDS011;9785;59.362;12.152;2024-02-26T01:32:31;6.53;;;2.83;;
19301;SDS011;9785;59.362;12.152;2024-02-26T01:35:00;6.33;;;3.07;;
19301;SDS011;9785;59.362;12.152;2024-02-26T01:37:31;4.17;;;2.70;;
19301;SDS011;9785;59.362;12.152;2024-02-26T01:39:58;4.10;;;3.10;;
19301;SDS011;9785;59.362;12.152;2024-02-26T01:42:27;12.10;;;3.60;;
19301;SDS011;9785;59.362;12.152;2024-02-26T01:44:55;3.93;;;3.03;;
19301;SDS011;9785;59.362;12.152;2024-02-26T01:47:24;3.67;;;3.30;;
19301;SDS011;9785;59.362;12.152;2024-02-26T01:49:54;4.50;;;3.10;;
19301;SDS011;9785;59.362;12.152;2024-02-26T01:52:23;3.63;;;2.90;;
19301;SDS011;9785;59.362;12.152;2024-02-26T01:54:53;2.67;;;2.47;;
19301;SDS011;9785;59.362;12.152;2024-02-26T01:57:21;4.63;;;2.80;;
19301;SDS011;9785;59.362;12.152;2024-02-26T01:59:50;4.20;;;3.00;;
19301;SDS011;9785;59.362;12.152;2024-02-26T02:02:18;3.80;;;2.43;;
19301;SDS011;9785;59.362;12.152;2024-02-26T02:04:47;5.27;;;2.37;;
19301;SDS011;9785;59.362;12.152;2024-02-26T02:07:15;3.30;;;2.80;;
19301;SDS011;9785;59.362;12.152;2024-02-26T02:09:44;4.63;;;2.63;;
19301;SDS011;9785;59.362;12.152;2024-02-26T02:12:14;3.27;;;2.20;;
19301;SDS011;9785;59.362;12.152;2024-02-26T02:14:42;2.87;;;2.53;;
19301;SDS011;9785;59.362;12.152;2024-02-26T02:17:11;5.90;;;2.60;;
19301;SDS011;9785;59.362;12.152;2024-02-26T02:19:40;3.17;;;2.30;;
19301;SDS011;9785;59.362;12.152;2024-02-26T02:22:10;3.43;;;2.83;;
19301;SDS011;9785;59.362;12.152;2024-02-26T02:24:38;2.43;;;2.30;;
19301;SDS011;9785;59.362;12.152;2024-02-26T02:27:07;2.57;;;2.20;;
19301;SDS011;9785;59.362;12.152;2024-02-26T02:29:35;2.17;;;2.00;;
19301;SDS011;9785;59.362;12.152;2024-02-26T02:32:04;3.60;;;1.93;;
19301;SDS011;9785;59.362;12.152;2024-02-26T02:34:33;2.50;;;2.30;;
19301;SDS011;9785;59.362;12.152;2024-02-26T02:37:02;2.80;;;2.60;;
19301;SDS011;9785;59.362;12.152;2024-02-26T02:39:32;3.43;;;2.50;;
19301;SDS011;9785;59.362;12.152;2024-02-26T02:42:00;2.23;;;2.03;;
19301;SDS011;9785;59.362;12.152;2024-02-26T02:44:29;2.00;;;1.90;;
19301;SDS011;9785;59.362;12.152;2024-02-26T02:46:57;2.20;;;2.00;;
19301;SDS011;9785;59.362;12.152;2024-02-26T02:49:26;2.17;;;2.00;;
19301;SDS011;9785;59.362;12.152;2024-02-26T02:51:55;2.30;;;2.10;;
19301;SDS011;9785;59.362;12.152;2024-02-26T02:54:24;2.23;;;2.03;;
19301;SDS011;9785;59.362;12.152;2024-02-26T02:56:54;2.60;;;2.30;;
19301;SDS011;9785;59.362;12.152;2024-02-26T02:59:22;4.70;;;2.60;;
19301;SDS011;9785;59.362;12.152;2024-02-26T03:01:51;3.10;;;2.17;;
19301;SDS011;9785;59.362;12.152;2024-02-26T03:04:19;2.27;;;2.07;;
19301;SDS011;9785;59.362;12.152;2024-02-26T03:06:48;2.60;;;2.40;;
19301;SDS011;9785;59.362;12.152;2024-02-26T03:09:16;4.23;;;2.43;;
19301;SDS011;9785;59.362;12.152;2024-02-26T03:11:45;2.90;;;2.60;;
19301;SDS011;9785;59.362;12.152;2024-02-26T03:14:16;3.23;;;2.60;;
19301;SDS011;9785;59.362;12.152;2024-02-26T03:16:44;2.27;;;2.07;;
19301;SDS011;9785;59.362;12.152;2024-02-26T03:19:14;2.10;;;2.00;;
19301;SDS011;9785;59.362;12.152;2024-02-26T03:21:43;2.33;;;2.13;;
19301;SDS011;9785;59.362;12.152;2024-02-26T03:24:11;3.47;;;2.17;;
19301;SDS011;9785;59.362;12.152;2024-02-26T03:26:41;2.87;;;2.23;;
19301;SDS011;9785;59.362;12.152;2024-02-26T03:29:09;2.00;;;1.90;;
19301;SDS011;9785;59.362;12.152;2024-02-26T03:31:39;2.87;;;2.30;;
19301;SDS011;9785;59.362;12.152;2024-02-26T03:34:08;3.23;;;2.07;;
19301;SDS011;9785;59.362;12.152;2024-02-26T03:36:38;2.33;;;2.13;;
19301;SDS011;9785;59.362;12.152;2024-02-26T03:39:06;2.33;;;2.00;;
19301;SDS011;9785;59.362;12.152;2024-02-26T03:41:35;2.60;;;2.40;;
19301;SDS011;9785;59.362;12.152;2024-02-26T03:44:04;2.37;;;2.17;;
19301;SDS011;9785;59.362;12.152;2024-02-26T03:46:32;2.30;;;2.10;;
19301;SDS011;9785;59.362;12.152;2024-02-26T03:49:03;3.17;;;1.97;;
19301;SDS011;9785;59.362;12.152;2024-02-26T03:51:32;3.77;;;2.47;;
19301;SDS011;9785;59.362;12.152;2024-02-26T03:54:00;2.93;;;2.27;;
19301;SDS011;9785;59.362;12.152;2024-02-26T03:56:29;4.70;;;2.17;;
19301;SDS011;9785;59.362;12.152;2024-02-26T03:58:58;3.07;;;2.00;;
19301;SDS011;9785;59.362;12.152;2024-02-26T04:01:28;2.33;;;2.13;;
19301;SDS011;9785;59.362;12.152;2024-02-26T04:03:58;4.43;;;2.23;;
19301;SDS011;9785;59.362;12.152;2024-02-26T04:06:28;2.87;;;2.30;;
19301;SDS011;9785;59.362;12.152;2024-02-26T04:08:56;2.77;;;2.17;;
19301;SDS011;9785;59.362;12.152;2024-02-26T04:11:25;2.87;;;2.13;;
19301;SDS011;9785;59.362;12.152;2024-02-26T04:13:53;5.53;;;2.60;;
19301;SDS011;9785;59.362;12.152;2024-02-26T04:16:23;5.00;;;2.40;;
19301;SDS011;9785;59.362;12.152;2024-02-26T04:18:51;6.53;;;2.87;;
19301;SDS011;9785;59.362;12.152;2024-02-26T04:21:21;9.77;;;2.60;;
19301;SDS011;9785;59.362;12.152;2024-02-26T04:23:51;5.43;;;2.43;;
19301;SDS011;9785;59.362;12.152;2024-02-26T04:26:21;5.53;;;2.73;;
19301;SDS011;9785;59.362;12.152;2024-02-26T04:28:50;9.90;;;2.53;;
19301;SDS011;9785;59.362;12.152;2024-02-26T04:31:19;6.33;;;2.53;;
19301;SDS011;9785;59.362;12.152;2024-02-26T04:33:47;7.60;;;2.83;;
19301;SDS011;9785;59.362;12.152;2024-02-26T04:36:16;9.30;;;2.70;;
19301;SDS011;9785;59.362;12.152;2024-02-26T04:38:45;6.50;;;2.50;;
19301;SDS011;9785;59.362;12.152;2024-02-26T04:41:15;6.03;;;2.47;;
19301;SDS011;9785;59.362;12.152;2024-02-26T04:43:43;6.17;;;2.93;;
19301;SDS011;9785;59.362;12.152;2024-02-26T04:46:12;5.60;;;2.40;;
19301;SDS011;9785;59.362;12.152;2024-02-26T04:48:40;6.10;;;2.00;;
19301;SDS011;9785;59.362;12.152;2024-02-26T04:51:11;3.37;;;2.43;;
19301;SDS011;9785;59.362;12.152;2024-02-26T04:53:40;4.73;;;2.17;;
19301;SDS011;9785;59.362;12.152;2024-02-26T04:56:08;7.23;;;2.00;;
19301;SDS011;9785;59.362;12.152;2024-02-26T04:58:38;3.30;;;2.30;;
19301;SDS011;9785;59.362;12.152;2024-02-26T05:01:07;2.27;;;1.93;;
19301;SDS011;9785;59.362;12.152;2024-02-26T05:03:37;3.10;;;1.80;;
19301;SDS011;9785;59.362;12.152;2024-02-26T05:06:05;1.73;;;1.63;;
19301;SDS011;9785;59.362;12.152;2024-02-26T05:08:35;3.60;;;1.83;;
19301;SDS011;9785;59.362;12.152;2024-02-26T05:11:05;3.47;;;1.73;;
19301;SDS011;9785;59.362;12.152;2024-02-26T05:13:33;3.00;;;1.60;;
19301;SDS011;9785;59.362;12.152;2024-02-26T05:16:03;8.73;;;1.90;;
19301;SDS011;9785;59.362;12.152;2024-02-26T05:18:32;3.77;;;2.10;;
19301;SDS011;9785;59.362;12.152;2024-02-26T05:21:01;2.63;;;1.50;;
19301;SDS011;9785;59.362;12.152;2024-02-26T05:23:29;6.80;;;2.00;;
19301;SDS011;9785;59.362;12.152;2024-02-26T05:25:58;6.27;;;2.20;;
19301;SDS011;9785;59.362;12.152;2024-02-26T05:28:27;3.87;;;1.80;;
19301;SDS011;9785;59.362;12.152;2024-02-26T05:30:55;4.73;;;2.13;;
19301;SDS011;9785;59.362;12.152;2024-02-26T05:33:25;4.03;;;2.17;;
19301;SDS011;9785;59.362;12.152;2024-02-26T05:35:54;2.37;;;2.10;;
19301;SDS011;9785;59.362;12.152;2024-02-26T05:38:23;2.57;;;1.80;;
19301;SDS011;9785;59.362;12.152;2024-02-26T05:40:52;3.07;;;1.83;;
19301;SDS011;9785;59.362;12.152;2024-02-26T05:43:20;2.83;;;1.67;;
19301;SDS011;9785;59.362;12.152;2024-02-26T05:45:49;2.10;;;1.90;;
19301;SDS011;9785;59.362;12.152;2024-02-26T05:48:17;1.90;;;1.80;;
19301;SDS011;9785;59.362;12.152;2024-02-26T05:50:48;6.00;;;2.03;;
19301;SDS011;9785;59.362;12.152;2024-02-26T05:53:16;2.00;;;1.90;;
19301;SDS011;9785;59.362;12.152;2024-02-26T05:55:45;4.30;;;2.20;;
19301;SDS011;9785;59.362;12.152;2024-02-26T05:58:13;1.80;;;1.70;;
19301;SDS011;9785;59.362;12.152;2024-02-26T06:00:42;2.20;;;2.00;;
19301;SDS011;9785;59.362;12.152;2024-02-26T06:03:10;2.20;;;2.00;;
19301;SDS011;9785;59.362;12.152;2024-02-26T06:05:39;3.97;;;2.00;;
19301;SDS011;9785;59.362;12.152;2024-02-26T06:08:09;4.67;;;1.93;;
19301;SDS011;9785;59.362;12.152;2024-02-26T06:10:37;4.10;;;2.20;;
19301;SDS011;9785;59.362;12.152;2024-02-26T06:13:06;2.97;;;1.97;;
19301;SDS011;9785;59.362;12.152;2024-02-26T06:15:34;4.03;;;2.00;;
19301;SDS011;9785;59.362;12.152;2024-02-26T06:18:03;3.83;;;2.10;;
19301;SDS011;9785;59.362;12.152;2024-02-26T06:20:32;2.83;;;1.97;;
19301;SDS011;9785;59.362;12.152;2024-02-26T06:23:00;1.93;;;1.83;;
19301;SDS011;9785;59.362;12.152;2024-02-26T06:25:30;1.80;;;1.70;;
19301;SDS011;9785;59.362;12.152;2024-02-26T06:27:59;1.80;;;1.70;;
19301;SDS011;9785;59.362;12.152;2024-02-26T06:30:29;1.87;;;1.77;;
19301;SDS011;9785;59.362;12.152;2024-02-26T06:32:57;2.97;;;2.10;;
19301;SDS011;9785;59.362;12.152;2024-02-26T06:35:26;2.13;;;2.00;;
19301;SDS011;9785;59.362;12.152;2024-02-26T06:37:56;1.93;;;1.83;;
19301;SDS011;9785;59.362;12.152;2024-02-26T06:40:25;2.00;;;1.90;;
19301;SDS011;9785;59.362;12.152;2024-02-26T06:42:55;2.40;;;2.03;;
19301;SDS011;9785;59.362;12.152;2024-02-26T06:45:23;2.07;;;1.97;;
19301;SDS011;9785;59.362;12.152;2024-02-26T06:47:52;1.90;;;1.73;;
19301;SDS011;9785;59.362;12.152;2024-02-26T06:50:22;2.10;;;2.00;;
19301;SDS011;9785;59.362;12.152;2024-02-26T06:52:50;2.40;;;2.20;;
19301;SDS011;9785;59.362;12.152;2024-02-26T06:55:19;1.77;;;1.67;;
19301;SDS011;9785;59.362;12.152;2024-02-26T06:57:48;2.40;;;2.00;;
19301;SDS011;9785;59.362;12.152;2024-02-26T07:00:18;2.20;;;2.10;;
19301;SDS011;9785;59.362;12.152;2024-02-26T07:02:46;2.40;;;2.30;;
19301;SDS011;9785;59.362;12.152;2024-02-26T07:05:15;2.00;;;1.90;;
19301;SDS011;9785;59.362;12.152;2024-02-26T07:07:44;2.67;;;2.07;;
19301;SDS011;9785;59.362;12.152;2024-02-26T07:10:12;2.00;;;1.80;;
19301;SDS011;9785;59.362;12.152;2024-02-26T07:12:41;2.30;;;2.10;;
19301;SDS011;9785;59.362;12.152;2024-02-26T07:15:09;2.33;;;2.13;;
19301;SDS011;9785;59.362;12.152;2024-02-26T07:17:40;4.37;;;2.07;;
19301;SDS011;9785;59.362;12.152;2024-02-26T07:20:13;2.50;;;2.00;;
19301;SDS011;9785;59.362;12.152;2024-02-26T07:22:43;2.10;;;2.00;;
19301;SDS011;9785;59.362;12.152;2024-02-26T07:25:11;2.30;;;2.10;;
19301;SDS011;9785;59.362;12.152;2024-02-26T07:27:40;2.57;;;2.10;;
19301;SDS011;9785;59.362;12.152;2024-02-26T07:30:09;2.00;;;1.87;;
19301;SDS011;9785;59.362;12.152;2024-02-26T07:32:39;4.63;;;2.60;;
19301;SDS011;9785;59.362;12.152;2024-02-26T07:35:16;5.90;;;1.87;;
19301;SDS011;9785;59.362;12.152;2024-02-26T07:37:47;2.00;;;1.90;;
19301;SDS011;9785;59.362;12.152;2024-02-26T07:40:16;2.30;;;2.10;;
19301;SDS011;9785;59.362;12.152;2024-02-26T07:42:45;1.77;;;1.67;;
19301;SDS011;9785;59.362;12.152;2024-02-26T07:45:13;2.20;;;2.10;;
19301;SDS011;9785;59.362;12.152;2024-02-26T07:47:47;1.80;;;1.70;;
19301;SDS011;9785;59.362;12.152;2024-02-26T07:50:17;2.33;;;2.10;;
19301;SDS011;9785;59.362;12.152;2024-02-26T07:52:47;2.00;;;1.90;;
19301;SDS011;9785;59.362;12.152;2024-02-26T07:55:17;2.13;;;1.93;;
19301;SDS011;9785;59.362;12.152;2024-02-26T07:57:46;2.90;;;2.10;;
19301;SDS011;9785;59.362;12.152;2024-02-26T08:00:15;1.90;;;1.80;;
19301;SDS011;9785;59.362;12.152;2024-02-26T08:02:44;2.03;;;1.93;;
19301;SDS011;9785;59.362;12.152;2024-02-26T08:05:15;2.70;;;2.03;;
19301;SDS011;9785;59.362;12.152;2024-02-26T08:07:43;1.80;;;1.70;;
19301;SDS011;9785;59.362;12.152;2024-02-26T08:10:12;2.20;;;1.50;;
19301;SDS011;9785;59.362;12.152;2024-02-26T08:12:40;2.00;;;1.90;;
19301;SDS011;9785;59.362;12.152;2024-02-26T08:15:09;2.10;;;1.70;;
19301;SDS011;9785;59.362;12.152;2024-02-26T08:17:37;1.57;;;1.47;;
19301;SDS011;9785;59.362;12.152;2024-02-26T08:20:06;1.67;;;1.57;;
19301;SDS011;9785;59.362;12.152;2024-02-26T08:22:37;2.03;;;1.60;;
19301;SDS011;9785;59.362;12.152;2024-02-26T08:25:06;2.13;;;1.40;;
19301;SDS011;9785;59.362;12.152;2024-02-26T08:27:35;1.40;;;1.40;;
19301;SDS011;9785;59.362;12.152;2024-02-26T08:30:04;3.20;;;1.67;;
19301;SDS011;9785;59.362;12.152;2024-02-26T08:32:35;1.87;;;1.60;;
19301;SDS011;9785;59.362;12.152;2024-02-26T08:35:04;2.70;;;1.57;;
19301;SDS011;9785;59.362;12.152;2024-02-26T08:37:32;3.23;;;1.50;;
19301;SDS011;9785;59.362;12.152;2024-02-26T08:40:02;1.57;;;1.47;;
19301;SDS011;9785;59.362;12.152;2024-02-26T08:42:34;1.63;;;1.53;;
19301;SDS011;9785;59.362;12.152;2024-02-26T08:45:03;1.50;;;1.40;;
19301;SDS011;9785;59.362;12.152;2024-02-26T08:47:31;1.23;;;1.23;;
19301;SDS011;9785;59.362;12.152;2024-02-26T08:50:03;1.80;;;1.70;;
19301;SDS011;9785;59.362;12.152;2024-02-26T08:52:32;1.70;;;1.60;;
19301;SDS011;9785;59.362;12.152;2024-02-26T08:55:02;1.60;;;1.50;;
19301;SDS011;9785;59.362;12.152;2024-02-26T08:57:31;2.00;;;1.90;;
19301;SDS011;9785;59.362;12.152;2024-02-26T09:00:00;1.60;;;1.50;;
19301;SDS011;9785;59.362;12.152;2024-02-26T09:02:29;1.90;;;1.80;;
19301;SDS011;9785;59.362;12.152;2024-02-26T09:04:57;4.00;;;1.50;;
19301;SDS011;9785;59.362;12.152;2024-02-26T09:07:26;1.57;;;1.37;;
19301;SDS011;9785;59.362;12.152;2024-02-26T09:09:54;1.40;;;1.33;;
19301;SDS011;9785;59.362;12.152;2024-02-26T09:12:24;2.20;;;1.57;;
19301;SDS011;9785;59.362;12.152;2024-02-26T09:14:53;1.70;;;1.20;;
19301;SDS011;9785;59.362;12.152;2024-02-26T09:17:22;1.47;;;1.33;;
19301;SDS011;9785;59.362;12.152;2024-02-26T09:19:51;2.93;;;1.43;;
19301;SDS011;9785;59.362;12.152;2024-02-26T09:22:19;1.47;;;1.40;;
19301;SDS011;9785;59.362;12.152;2024-02-26T09:24:48;1.47;;;1.37;;
19301;SDS011;9785;59.362;12.152;2024-02-26T09:27:17;1.50;;;1.50;;
19301;SDS011;9785;59.362;12.152;2024-02-26T09:29:47;1.53;;;1.30;;
19301;SDS011;9785;59.362;12.152;2024-02-26T09:32:16;1.27;;;1.20;;
19301;SDS011;9785;59.362;12.152;2024-02-26T09:34:45;1.17;;;1.17;;
19301;SDS011;9785;59.362;12.152;2024-02-26T09:37:14;1.50;;;1.40;;
19301;SDS011;9785;59.362;12.152;2024-02-26T09:39:47;1.70;;;1.63;;
19301;SDS011;9785;59.362;12.152;2024-02-26T09:42:17;2.57;;;1.23;;
19301;SDS011;9785;59.362;12.152;2024-02-26T09:44:48;1.50;;;1.10;;
19301;SDS011;9785;59.362;12.152;2024-02-26T09:47:19;1.00;;;1.00;;
19301;SDS011;9785;59.362;12.152;2024-02-26T09:49:47;2.30;;;1.40;;
19301;SDS011;9785;59.362;12.152;2024-02-26T09:52:16;1.40;;;1.30;;
19301;SDS011;9785;59.362;12.152;2024-02-26T09:54:47;1.40;;;1.37;;
19301;SDS011;9785;59.362;12.152;2024-02-26T09:57:16;1.80;;;1.67;;
19301;SDS011;9785;59.362;12.152;2024-02-26T09:59:44;1.83;;;1.13;;
19301;SDS011;9785;59.362;12.152;2024-02-26T10:02:18;1.30;;;1.20;;
19301;SDS011;9785;59.362;12.152;2024-02-26T10:04:48;1.00;;;1.00;;
19301;SDS011;9785;59.362;12.152;2024-02-26T10:07:19;1.70;;;1.23;;
19301;SDS011;9785;59.362;12.152;2024-02-26T10:09:48;1.37;;;1.27;;
19301;SDS011;9785;59.362;12.152;2024-02-26T10:12:17;1.83;;;1.40;;
19301;SDS011;9785;59.362;12.152;2024-02-26T10:14:46;1.50;;;1.40;;
19301;SDS011;9785;59.362;12.152;2024-02-26T10:17:15;1.30;;;1.30;;
19301;SDS011;9785;59.362;12.152;2024-02-26T10:19:45;1.00;;;1.00;;
19301;SDS011;9785;59.362;12.152;2024-02-26T10:22:13;1.30;;;1.30;;
19301;SDS011;9785;59.362;12.152;2024-02-26T10:24:42;1.30;;;1.30;;
19301;SDS011;9785;59.362;12.152;2024-02-26T10:27:10;1.50;;;1.40;;
19301;SDS011;9785;59.362;12.152;2024-02-26T10:29:39;1.27;;;1.27;;
19301;SDS011;9785;59.362;12.152;2024-02-26T10:32:09;2.37;;;1.40;;
19301;SDS011;9785;59.362;12.152;2024-02-26T10:34:40;1.47;;;1.47;;
19301;SDS011;9785;59.362;12.152;2024-02-26T10:37:10;1.47;;;1.37;;
19301;SDS011;9785;59.362;12.152;2024-02-26T10:39:39;1.53;;;1.37;;
19301;SDS011;9785;59.362;12.152;2024-02-26T10:42:12;1.10;;;1.10;;
19301;SDS011;9785;59.362;12.152;2024-02-26T10:44:41;1.90;;;1.17;;
19301;SDS011;9785;59.362;12.152;2024-02-26T10:47:11;1.60;;;1.50;;
19301;SDS011;9785;59.362;12.152;2024-02-26T10:49:44;1.37;;;1.27;;
19301;SDS011;9785;59.362;12.152;2024-02-26T10:52:19;1.33;;;1.30;;
19301;SDS011;9785;59.362;12.152;2024-02-26T10:54:48;1.20;;;1.20;;
19301;SDS011;9785;59.362;12.152;2024-02-26T10:57:18;1.20;;;1.20;;
19301;SDS011;9785;59.362;12.152;2024-02-26T10:59:47;2.90;;;1.40;;
19301;SDS011;9785;59.362;12.152;2024-02-26T11:02:16;1.60;;;1.10;;
19301;SDS011;9785;59.362;12.152;2024-02-26T11:04:45;1.30;;;1.20;;
19301;SDS011;9785;59.362;12.152;2024-02-26T11:07:14;2.10;;;1.33;;
19301;SDS011;9785;59.362;12.152;2024-02-26T11:09:45;1.53;;;1.00;;
19301;SDS011;9785;59.362;12.152;2024-02-26T11:12:18;1.60;;;1.20;;
19301;SDS011;9785;59.362;12.152;2024-02-26T11:14:47;2.37;;;1.13;;
19301;SDS011;9785;59.362;12.152;2024-02-26T11:17:21;1.43;;;1.10;;
19301;SDS011;9785;59.362;12.152;2024-02-26T11:19:51;1.17;;;1.10;;
19301;SDS011;9785;59.362;12.152;2024-02-26T11:22:21;1.23;;;1.13;;
19301;SDS011;9785;59.362;12.152;2024-02-26T11:24:53;2.00;;;0.90;;
19301;SDS011;9785;59.362;12.152;2024-02-26T11:27:24;1.07;;;1.07;;
19301;SDS011;9785;59.362;12.152;2024-02-26T11:29:57;1.20;;;1.10;;
19301;SDS011;9785;59.362;12.152;2024-02-26T11:32:27;0.90;;;0.90;;
19301;SDS011;9785;59.362;12.152;2024-02-26T11:34:57;0.90;;;0.90;;
19301;SDS011;9785;59.362;12.152;2024-02-26T11:37:26;0.90;;;0.90;;
19301;SDS011;9785;59.362;12.152;2024-02-26T11:39:56;0.93;;;0.93;;
19301;SDS011;9785;59.362;12.152;2024-02-26T11:42:27;1.20;;;1.20;;
19301;SDS011;9785;59.362;12.152;2024-02-26T11:44:56;1.00;;;1.00;;
19301;SDS011;9785;59.362;12.152;2024-02-26T11:47:27;1.30;;;1.13;;
19301;SDS011;9785;59.362;12.152;2024-02-26T11:49:56;1.20;;;1.07;;
19301;SDS011;9785;59.362;12.152;2024-02-26T11:52:24;1.30;;;1.03;;
19301;SDS011;9785;59.362;12.152;2024-02-26T11:54:53;0.80;;;0.80;;
19301;SDS011;9785;59.362;12.152;2024-02-26T11:57:26;1.10;;;1.00;;
19301;SDS011;9785;59.362;12.152;2024-02-26T11:59:56;1.10;;;1.00;;
19301;SDS011;9785;59.362;12.152;2024-02-26T12:02:38;0.90;;;0.90;;
19301;SDS011;9785;59.362;12.152;2024-02-26T12:05:09;0.67;;;0.67;;
19301;SDS011;9785;59.362;12.152;2024-02-26T12:07:40;1.60;;;0.83;;
19301;SDS011;9785;59.362;12.152;2024-02-26T12:10:24;0.87;;;0.87;;
19301;SDS011;9785;59.362;12.152;2024-02-26T12:12:54;0.83;;;0.83;;
19301;SDS011;9785;59.362;12.152;2024-02-26T12:15:24;1.10;;;1.10;;
19301;SDS011;9785;59.362;12.152;2024-02-26T12:17:53;0.80;;;0.80;;
19301;SDS011;9785;59.362;12.152;2024-02-26T12:20:21;0.90;;;0.90;;
19301;SDS011;9785;59.362;12.152;2024-02-26T12:22:50;1.00;;;1.00;;
19301;SDS011;9785;59.362;12.152;2024-02-26T12:25:23;1.03;;;0.90;;
19301;SDS011;9785;59.362;12.152;2024-02-26T12:27:52;1.00;;;1.00;;
19301;SDS011;9785;59.362;12.152;2024-02-26T12:30:22;0.97;;;0.93;;
19301;SDS011;9785;59.362;12.152;2024-02-26T12:32:52;0.90;;;0.90;;
19301;SDS011;9785;59.362;12.152;2024-02-26T12:35:24;1.13;;;1.00;;
19301;SDS011;9785;59.362;12.152;2024-02-26T12:37:52;1.10;;;1.10;;
19301;SDS011;9785;59.362;12.152;2024-02-26T12:40:21;1.33;;;1.30;;
19301;SDS011;9785;59.362;12.152;2024-02-26T12:42:50;1.20;;;1.10;;
19301;SDS011;9785;59.362;12.152;2024-02-26T12:45:19;1.07;;;0.90;;
19301;SDS011;9785;59.362;12.152;2024-02-26T12:47:49;0.90;;;0.90;;
19301;SDS011;9785;59.362;12.152;2024-02-26T12:50:18;1.10;;;1.10;;
19301;SDS011;9785;59.362;12.152;2024-02-26T12:52:47;1.20;;;1.17;;
19301;SDS011;9785;59.362;12.152;2024-02-26T12:55:16;1.00;;;1.00;;
19301;SDS011;9785;59.362;12.152;2024-02-26T12:57:47;1.00;;;1.00;;
19301;SDS011;9785;59.362;12.152;2024-02-26T13:00:17;2.63;;;1.20;;
19301;SDS011;9785;59.362;12.152;2024-02-26T13:02:46;0.97;;;0.97;;
19301;SDS011;9785;59.362;12.152;2024-02-26T13:05:17;1.20;;;1.10;;
19301;SDS011;9785;59.362;12.152;2024-02-26T13:07:46;1.20;;;1.20;;
19301;SDS011;9785;59.362;12.152;2024-02-26T13:10:15;1.00;;;1.00;;
19301;SDS011;9785;59.362;12.152;2024-02-26T13:12:45;1.20;;;1.10;;
19301;SDS011;9785;59.362;12.152;2024-02-26T13:15:14;1.23;;;1.23;;
19301;SDS011;9785;59.362;12.152;2024-02-26T13:17:43;1.00;;;1.00;;
19301;SDS011;9785;59.362;12.152;2024-02-26T13:20:12;1.27;;;1.17;;
19301;SDS011;9785;59.362;12.152;2024-02-26T13:22:43;1.33;;;1.23;;
19301;SDS011;9785;59.362;12.152;2024-02-26T13:25:12;2.93;;;1.20;;
19301;SDS011;9785;59.362;12.152;2024-02-26T13:27:40;1.60;;;1.27;;
19301;SDS011;9785;59.362;12.152;2024-02-26T13:30:09;1.40;;;1.17;;
19301;SDS011;9785;59.362;12.152;2024-02-26T13:32:39;1.57;;;1.47;;
19301;SDS011;9785;59.362;12.152;2024-02-26T13:35:10;1.37;;;1.37;;
19301;SDS011;9785;59.362;12.152;2024-02-26T13:37:39;1.10;;;1.00;;
19301;SDS011;9785;59.362;12.152;2024-02-26T13:40:09;2.60;;;1.10;;
19301;SDS011;9785;59.362;12.152;2024-02-26T13:42:38;1.17;;;1.03;;
19301;SDS011;9785;59.362;12.152;2024-02-26T13:45:07;1.10;;;1.10;;
19301;SDS011;9785;59.362;12.152;2024-02-26T13:47:37;1.10;;;1.10;;
19301;SDS011;9785;59.362;12.152;2024-02-26T13:50:07;1.27;;;1.17;;
19301;SDS011;9785;59.362;12.152;2024-02-26T13:52:35;1.10;;;1.10;;
19301;SDS011;9785;59.362;12.152;2024-02-26T13:55:04;1.00;;;1.00;;
19301;SDS011;9785;59.362;12.152;2024-02-26T13:57:35;1.20;;;1.20;;
19301;SDS011;9785;59.362;12.152;2024-02-26T14:00:04;1.07;;;1.07;;
19301;SDS011;9785;59.362;12.152;2024-02-26T14:02:33;1.10;;;0.90;;
19301;SDS011;9785;59.362;12.152;2024-02-26T14:05:03;0.90;;;0.90;;
19301;SDS011;9785;59.362;12.152;2024-02-26T14:07:31;1.13;;;1.03;;
19301;SDS011;9785;59.362;12.152;2024-02-26T14:10:00;1.00;;;1.00;;
19301;SDS011;9785;59.362;12.152;2024-02-26T14:12:29;1.00;;;1.00;;
19301;SDS011;9785;59.362;12.152;2024-02-26T14:14:59;1.10;;;1.10;;
19301;SDS011;9785;59.362;12.152;2024-02-26T14:17:31;1.03;;;0.97;;
19301;SDS011;9785;59.362;12.152;2024-02-26T14:19:59;0.97;;;0.97;;
19301;SDS011;9785;59.362;12.152;2024-02-26T14:22:28;0.97;;;0.97;;
19301;SDS011;9785;59.362;12.152;2024-02-26T14:24:57;1.00;;;1.00;;
19301;SDS011;9785;59.362;12.152;2024-02-26T14:27:26;1.60;;;1.03;;
19301;SDS011;9785;59.362;12.152;2024-02-26T14:29:55;1.80;;;1.10;;
19301;SDS011;9785;59.362;12.152;2024-02-26T14:32:24;1.00;;;1.00;;
19301;SDS011;9785;59.362;12.152;2024-02-26T14:34:55;0.93;;;0.93;;
19301;SDS011;9785;59.362;12.152;2024-02-26T14:37:24;1.17;;;1.13;;
19301;SDS011;9785;59.362;12.152;2024-02-26T14:39:52;1.20;;;1.10;;
19301;SDS011;9785;59.362;12.152;2024-02-26T14:42:21;1.70;;;1.10;;
19301;SDS011;9785;59.362;12.152;2024-02-26T14:44:50;4.33;;;1.10;;
19301;SDS011;9785;59.362;12.152;2024-02-26T14:47:19;1.80;;;1.03;;
19301;SDS011;9785;59.362;12.152;2024-02-26T14:49:49;1.10;;;1.10;;
19301;SDS011;9785;59.362;12.152;2024-02-26T14:52:18;1.77;;;1.10;;
19301;SDS011;9785;59.362;12.152;2024-02-26T14:54:46;1.43;;;1.00;;
19301;SDS011;9785;59.362;12.152;2024-02-26T14:57:16;1.00;;;1.00;;
19301;SDS011;9785;59.362;12.152;2024-02-26T14:59:45;1.50;;;1.20;;